Weather at St Louis Lambert International Airport

Public forecast

Using degrees Fahrenheit for public forecast. Weather courtesy of forecast.io.

Current aviation weather report (METAR) for St Louis Lambert International Airport

2022/12/08 13:06 (retrieved 42 minutes ago)

KSTL 081306Z 05005KT 2 1/2SM BR OVC006 06/04 A3025 RMK AO2 T00610044

Aviation forecast (TAF) for St Louis Lambert International Airport

2022/12/08 12:27 (retrieved 1 hour ago)

TAF KSTL 081125Z 0812/0918 07007KT 4SM -RA BR SCT006 BKN025 TEMPO 0812/0814 BKN006 FM081400 09006KT 4SM -RA BR OVC006 FM081600 09007KT 4SM BR OVC006 FM081900 08006KT P6SM OVC007 FM090600 13006KT 4SM BR VCSH OVC005 FM091200 VRB04KT P6SM VCSH OVC007 FM091400 22005KT P6SM SCT007 OVC035